sensor_id;sensor_type;location;lat;lon;timestamp;P1;durP1;ratioP1;P2;durP2;ratioP2
6531;SDS011;3299;42.004;24.868;2022-08-03T00:00:59;1.70;;;1.60;;
6531;SDS011;3299;42.004;24.868;2022-08-03T00:03:25;2.05;;;1.40;;
6531;SDS011;3299;42.004;24.868;2022-08-03T00:05:50;1.65;;;1.55;;
6531;SDS011;3299;42.004;24.868;2022-08-03T00:08:16;1.58;;;1.52;;
6531;SDS011;3299;42.004;24.868;2022-08-03T00:10:42;1.42;;;1.42;;
6531;SDS011;3299;42.004;24.868;2022-08-03T00:13:07;1.60;;;1.50;;
6531;SDS011;3299;42.004;24.868;2022-08-03T00:15:33;1.60;;;1.50;;
6531;SDS011;3299;42.004;24.868;2022-08-03T00:17:58;1.42;;;1.42;;
6531;SDS011;3299;42.004;24.868;2022-08-03T00:20:24;1.98;;;1.45;;
6531;SDS011;3299;42.004;24.868;2022-08-03T00:22:49;2.17;;;1.45;;
6531;SDS011;3299;42.004;24.868;2022-08-03T00:25:15;1.70;;;1.60;;
6531;SDS011;3299;42.004;24.868;2022-08-03T00:27:41;2.33;;;1.60;;
6531;SDS011;3299;42.004;24.868;2022-08-03T00:30:07;1.75;;;1.65;;
6531;SDS011;3299;42.004;24.868;2022-08-03T00:32:32;3.42;;;1.67;;
6531;SDS011;3299;42.004;24.868;2022-08-03T00:34:58;1.58;;;1.48;;
6531;SDS011;3299;42.004;24.868;2022-08-03T00:37:23;1.80;;;1.60;;
6531;SDS011;3299;42.004;24.868;2022-08-03T00:39:48;3.15;;;1.70;;
6531;SDS011;3299;42.004;24.868;2022-08-03T00:42:14;1.73;;;1.63;;
6531;SDS011;3299;42.004;24.868;2022-08-03T00:44:43;1.70;;;1.60;;
6531;SDS011;3299;42.004;24.868;2022-08-03T00:47:09;3.03;;;1.35;;
6531;SDS011;3299;42.004;24.868;2022-08-03T00:49:36;1.33;;;1.33;;
6531;SDS011;3299;42.004;24.868;2022-08-03T00:52:02;1.52;;;1.50;;
6531;SDS011;3299;42.004;24.868;2022-08-03T00:54:29;1.40;;;1.30;;
6531;SDS011;3299;42.004;24.868;2022-08-03T00:56:54;2.35;;;1.60;;
6531;SDS011;3299;42.004;24.868;2022-08-03T00:59:20;1.63;;;1.52;;
6531;SDS011;3299;42.004;24.868;2022-08-03T01:01:46;1.50;;;1.40;;
6531;SDS011;3299;42.004;24.868;2022-08-03T01:04:11;1.90;;;1.80;;
6531;SDS011;3299;42.004;24.868;2022-08-03T01:07:20;1.98;;;1.70;;
6531;SDS011;3299;42.004;24.868;2022-08-03T01:12:02;1.63;;;1.52;;
6531;SDS011;3299;42.004;24.868;2022-08-03T01:14:43;1.50;;;1.50;;
6531;SDS011;3299;42.004;24.868;2022-08-03T01:19:54;1.75;;;1.60;;
6531;SDS011;3299;42.004;24.868;2022-08-03T01:22:36;1.60;;;1.50;;
6531;SDS011;3299;42.004;24.868;2022-08-03T01:30:52;1.75;;;1.65;;
6531;SDS011;3299;42.004;24.868;2022-08-03T01:33:26;2.08;;;1.98;;
6531;SDS011;3299;42.004;24.868;2022-08-03T01:35:57;1.95;;;1.70;;
6531;SDS011;3299;42.004;24.868;2022-08-03T01:38:27;2.13;;;1.50;;
6531;SDS011;3299;42.004;24.868;2022-08-03T01:41:00;1.75;;;1.65;;
6531;SDS011;3299;42.004;24.868;2022-08-03T01:43:31;3.17;;;1.75;;
6531;SDS011;3299;42.004;24.868;2022-08-03T01:45:57;1.60;;;1.50;;
6531;SDS011;3299;42.004;24.868;2022-08-03T01:48:23;1.55;;;1.50;;
6531;SDS011;3299;42.004;24.868;2022-08-03T01:50:50;1.80;;;1.70;;
6531;SDS011;3299;42.004;24.868;2022-08-03T01:53:18;2.00;;;1.90;;
6531;SDS011;3299;42.004;24.868;2022-08-03T01:55:46;1.85;;;1.75;;
6531;SDS011;3299;42.004;24.868;2022-08-03T01:58:14;1.45;;;1.45;;
6531;SDS011;3299;42.004;24.868;2022-08-03T02:00:40;2.30;;;2.10;;
6531;SDS011;3299;42.004;24.868;2022-08-03T02:03:07;2.55;;;1.90;;
6531;SDS011;3299;42.004;24.868;2022-08-03T02:05:36;1.98;;;1.88;;
6531;SDS011;3299;42.004;24.868;2022-08-03T02:08:04;1.60;;;1.50;;
6531;SDS011;3299;42.004;24.868;2022-08-03T02:10:34;1.90;;;1.80;;
6531;SDS011;3299;42.004;24.868;2022-08-03T02:13:02;1.95;;;1.85;;
6531;SDS011;3299;42.004;24.868;2022-08-03T02:15:29;1.98;;;1.88;;
6531;SDS011;3299;42.004;24.868;2022-08-03T02:17:56;2.28;;;1.83;;
6531;SDS011;3299;42.004;24.868;2022-08-03T02:20:22;1.95;;;1.85;;
6531;SDS011;3299;42.004;24.868;2022-08-03T02:22:49;2.15;;;1.95;;
6531;SDS011;3299;42.004;24.868;2022-08-03T02:25:14;3.70;;;1.63;;
6531;SDS011;3299;42.004;24.868;2022-08-03T02:27:45;1.92;;;1.80;;
6531;SDS011;3299;42.004;24.868;2022-08-03T02:30:34;1.90;;;1.73;;
6531;SDS011;3299;42.004;24.868;2022-08-03T02:33:10;1.70;;;1.60;;
6531;SDS011;3299;42.004;24.868;2022-08-03T02:35:40;2.53;;;1.85;;
6531;SDS011;3299;42.004;24.868;2022-08-03T02:38:08;2.03;;;1.90;;
6531;SDS011;3299;42.004;24.868;2022-08-03T02:40:35;1.98;;;1.88;;
6531;SDS011;3299;42.004;24.868;2022-08-03T02:43:04;1.95;;;1.85;;
6531;SDS011;3299;42.004;24.868;2022-08-03T02:45:35;2.15;;;1.95;;
6531;SDS011;3299;42.004;24.868;2022-08-03T02:48:06;1.73;;;1.63;;
6531;SDS011;3299;42.004;24.868;2022-08-03T02:50:33;1.92;;;1.83;;
6531;SDS011;3299;42.004;24.868;2022-08-03T02:52:59;2.78;;;1.90;;
6531;SDS011;3299;42.004;24.868;2022-08-03T02:55:27;2.30;;;2.10;;
6531;SDS011;3299;42.004;24.868;2022-08-03T02:57:53;1.88;;;1.77;;
6531;SDS011;3299;42.004;24.868;2022-08-03T03:00:21;1.80;;;1.70;;
6531;SDS011;3299;42.004;24.868;2022-08-03T03:02:48;1.90;;;1.80;;
6531;SDS011;3299;42.004;24.868;2022-08-03T03:05:14;2.45;;;1.83;;
6531;SDS011;3299;42.004;24.868;2022-08-03T03:07:40;1.90;;;1.80;;
6531;SDS011;3299;42.004;24.868;2022-08-03T03:10:07;2.25;;;1.90;;
6531;SDS011;3299;42.004;24.868;2022-08-03T03:12:34;1.92;;;1.80;;
6531;SDS011;3299;42.004;24.868;2022-08-03T03:15:01;1.98;;;1.88;;
6531;SDS011;3299;42.004;24.868;2022-08-03T03:17:26;1.80;;;1.70;;
6531;SDS011;3299;42.004;24.868;2022-08-03T03:19:54;1.70;;;1.60;;
6531;SDS011;3299;42.004;24.868;2022-08-03T03:22:21;2.03;;;1.70;;
6531;SDS011;3299;42.004;24.868;2022-08-03T03:24:48;2.00;;;1.88;;
6531;SDS011;3299;42.004;24.868;2022-08-03T03:27:15;2.10;;;2.00;;
6531;SDS011;3299;42.004;24.868;2022-08-03T03:29:41;1.83;;;1.70;;
6531;SDS011;3299;42.004;24.868;2022-08-03T03:32:07;3.72;;;1.83;;
6531;SDS011;3299;42.004;24.868;2022-08-03T03:34:33;2.20;;;2.00;;
6531;SDS011;3299;42.004;24.868;2022-08-03T03:37:00;2.03;;;1.85;;
6531;SDS011;3299;42.004;24.868;2022-08-03T03:39:26;1.73;;;1.63;;
6531;SDS011;3299;42.004;24.868;2022-08-03T03:41:51;2.15;;;1.77;;
6531;SDS011;3299;42.004;24.868;2022-08-03T03:44:17;2.13;;;1.92;;
6531;SDS011;3299;42.004;24.868;2022-08-03T03:46:43;1.83;;;1.73;;
6531;SDS011;3299;42.004;24.868;2022-08-03T03:49:08;1.98;;;1.88;;
6531;SDS011;3299;42.004;24.868;2022-08-03T03:51:34;2.10;;;1.90;;
6531;SDS011;3299;42.004;24.868;2022-08-03T03:54:00;2.03;;;1.83;;
6531;SDS011;3299;42.004;24.868;2022-08-03T03:56:28;2.00;;;1.90;;
6531;SDS011;3299;42.004;24.868;2022-08-03T03:58:54;3.13;;;2.13;;
6531;SDS011;3299;42.004;24.868;2022-08-03T04:01:20;1.73;;;1.63;;
6531;SDS011;3299;42.004;24.868;2022-08-03T04:03:46;1.70;;;1.60;;
6531;SDS011;3299;42.004;24.868;2022-08-03T04:06:11;3.63;;;2.20;;
6531;SDS011;3299;42.004;24.868;2022-08-03T04:08:55;1.83;;;1.73;;
6531;SDS011;3299;42.004;24.868;2022-08-03T04:13:56;1.90;;;1.80;;
6531;SDS011;3299;42.004;24.868;2022-08-03T04:16:25;2.28;;;1.88;;
6531;SDS011;3299;42.004;24.868;2022-08-03T04:18:56;2.33;;;2.20;;
6531;SDS011;3299;42.004;24.868;2022-08-03T04:21:25;3.15;;;2.10;;
6531;SDS011;3299;42.004;24.868;2022-08-03T04:23:54;2.42;;;2.20;;
6531;SDS011;3299;42.004;24.868;2022-08-03T04:26:23;2.28;;;2.13;;
6531;SDS011;3299;42.004;24.868;2022-08-03T04:28:53;2.28;;;2.08;;
6531;SDS011;3299;42.004;24.868;2022-08-03T04:31:20;3.92;;;1.92;;
6531;SDS011;3299;42.004;24.868;2022-08-03T04:33:48;2.10;;;1.92;;
6531;SDS011;3299;42.004;24.868;2022-08-03T04:36:16;2.53;;;2.33;;
6531;SDS011;3299;42.004;24.868;2022-08-03T04:38:55;2.70;;;2.08;;
6531;SDS011;3299;42.004;24.868;2022-08-03T04:41:30;2.10;;;2.00;;
6531;SDS011;3299;42.004;24.868;2022-08-03T04:44:00;2.08;;;1.98;;
6531;SDS011;3299;42.004;24.868;2022-08-03T04:46:28;2.13;;;2.03;;
6531;SDS011;3299;42.004;24.868;2022-08-03T04:48:58;2.30;;;2.05;;
6531;SDS011;3299;42.004;24.868;2022-08-03T04:51:24;4.78;;;2.00;;
6531;SDS011;3299;42.004;24.868;2022-08-03T04:53:50;2.15;;;2.05;;
6531;SDS011;3299;42.004;24.868;2022-08-03T04:56:15;2.22;;;2.08;;
6531;SDS011;3299;42.004;24.868;2022-08-03T04:58:41;2.05;;;1.92;;
6531;SDS011;3299;42.004;24.868;2022-08-03T05:01:06;3.50;;;2.15;;
6531;SDS011;3299;42.004;24.868;2022-08-03T05:03:31;2.42;;;2.03;;
6531;SDS011;3299;42.004;24.868;2022-08-03T05:05:57;3.92;;;2.17;;
6531;SDS011;3299;42.004;24.868;2022-08-03T05:08:22;3.47;;;2.25;;
6531;SDS011;3299;42.004;24.868;2022-08-03T05:10:48;3.20;;;2.45;;
6531;SDS011;3299;42.004;24.868;2022-08-03T05:13:13;3.25;;;2.28;;
6531;SDS011;3299;42.004;24.868;2022-08-03T05:15:39;2.25;;;2.15;;
6531;SDS011;3299;42.004;24.868;2022-08-03T05:18:05;2.30;;;2.20;;
6531;SDS011;3299;42.004;24.868;2022-08-03T05:20:31;2.70;;;2.40;;
6531;SDS011;3299;42.004;24.868;2022-08-03T05:22:56;2.72;;;2.53;;
6531;SDS011;3299;42.004;24.868;2022-08-03T05:25:23;2.28;;;2.17;;
6531;SDS011;3299;42.004;24.868;2022-08-03T05:27:48;2.42;;;2.22;;
6531;SDS011;3299;42.004;24.868;2022-08-03T05:30:14;2.47;;;2.30;;
6531;SDS011;3299;42.004;24.868;2022-08-03T05:32:40;2.72;;;2.53;;
6531;SDS011;3299;42.004;24.868;2022-08-03T05:35:05;3.08;;;2.20;;
6531;SDS011;3299;42.004;24.868;2022-08-03T05:37:31;1.90;;;1.80;;
6531;SDS011;3299;42.004;24.868;2022-08-03T05:39:56;2.38;;;2.17;;
6531;SDS011;3299;42.004;24.868;2022-08-03T05:42:22;2.47;;;2.38;;
6531;SDS011;3299;42.004;24.868;2022-08-03T05:44:47;2.53;;;2.33;;
6531;SDS011;3299;42.004;24.868;2022-08-03T05:47:13;2.58;;;2.38;;
6531;SDS011;3299;42.004;24.868;2022-08-03T05:49:38;2.58;;;1.88;;
6531;SDS011;3299;42.004;24.868;2022-08-03T05:52:03;2.00;;;1.90;;
6531;SDS011;3299;42.004;24.868;2022-08-03T05:54:29;2.20;;;2.10;;
6531;SDS011;3299;42.004;24.868;2022-08-03T05:56:54;2.10;;;1.90;;
6531;SDS011;3299;42.004;24.868;2022-08-03T05:59:20;2.53;;;2.30;;
6531;SDS011;3299;42.004;24.868;2022-08-03T06:01:46;2.65;;;2.45;;
6531;SDS011;3299;42.004;24.868;2022-08-03T06:04:12;2.53;;;2.33;;
6531;SDS011;3299;42.004;24.868;2022-08-03T06:06:37;2.40;;;2.30;;
6531;SDS011;3299;42.004;24.868;2022-08-03T06:09:02;2.15;;;2.00;;
6531;SDS011;3299;42.004;24.868;2022-08-03T06:11:28;3.25;;;2.40;;
6531;SDS011;3299;42.004;24.868;2022-08-03T06:13:53;2.70;;;2.50;;
6531;SDS011;3299;42.004;24.868;2022-08-03T06:16:19;2.17;;;2.08;;
6531;SDS011;3299;42.004;24.868;2022-08-03T06:18:44;5.68;;;2.70;;
6531;SDS011;3299;42.004;24.868;2022-08-03T06:21:10;2.70;;;2.50;;
6531;SDS011;3299;42.004;24.868;2022-08-03T06:23:35;2.78;;;2.42;;
6531;SDS011;3299;42.004;24.868;2022-08-03T06:26:01;3.47;;;2.38;;
6531;SDS011;3299;42.004;24.868;2022-08-03T06:28:26;2.33;;;2.17;;
6531;SDS011;3299;42.004;24.868;2022-08-03T06:30:52;4.72;;;2.70;;
6531;SDS011;3299;42.004;24.868;2022-08-03T06:33:18;2.70;;;2.50;;
6531;SDS011;3299;42.004;24.868;2022-08-03T06:35:43;2.50;;;2.38;;
6531;SDS011;3299;42.004;24.868;2022-08-03T06:38:08;2.20;;;2.10;;
6531;SDS011;3299;42.004;24.868;2022-08-03T06:40:34;2.55;;;2.35;;
6531;SDS011;3299;42.004;24.868;2022-08-03T06:43:04;3.25;;;2.42;;
6531;SDS011;3299;42.004;24.868;2022-08-03T06:45:30;2.40;;;2.13;;
6531;SDS011;3299;42.004;24.868;2022-08-03T06:48:09;3.47;;;2.17;;
6531;SDS011;3299;42.004;24.868;2022-08-03T06:50:36;2.28;;;1.95;;
6531;SDS011;3299;42.004;24.868;2022-08-03T06:53:03;8.23;;;2.03;;
6531;SDS011;3299;42.004;24.868;2022-08-03T06:55:29;2.42;;;2.20;;
6531;SDS011;3299;42.004;24.868;2022-08-03T06:57:55;2.60;;;2.40;;
6531;SDS011;3299;42.004;24.868;2022-08-03T07:00:21;2.42;;;2.33;;
6531;SDS011;3299;42.004;24.868;2022-08-03T07:02:46;2.30;;;2.20;;
6531;SDS011;3299;42.004;24.868;2022-08-03T07:05:12;2.67;;;2.42;;
6531;SDS011;3299;42.004;24.868;2022-08-03T07:07:38;2.60;;;2.40;;
6531;SDS011;3299;42.004;24.868;2022-08-03T07:10:04;2.40;;;2.30;;
6531;SDS011;3299;42.004;24.868;2022-08-03T07:12:31;3.20;;;2.75;;
6531;SDS011;3299;42.004;24.868;2022-08-03T07:14:58;3.90;;;3.05;;
6531;SDS011;3299;42.004;24.868;2022-08-03T07:17:24;3.42;;;3.13;;
6531;SDS011;3299;42.004;24.868;2022-08-03T07:19:50;4.05;;;3.20;;
6531;SDS011;3299;42.004;24.868;2022-08-03T07:22:15;3.75;;;2.83;;
6531;SDS011;3299;42.004;24.868;2022-08-03T07:24:41;5.63;;;2.60;;
6531;SDS011;3299;42.004;24.868;2022-08-03T07:27:07;3.08;;;2.63;;
6531;SDS011;3299;42.004;24.868;2022-08-03T07:29:33;5.63;;;3.10;;
6531;SDS011;3299;42.004;24.868;2022-08-03T07:32:00;3.17;;;2.65;;
6531;SDS011;3299;42.004;24.868;2022-08-03T07:34:26;2.80;;;2.55;;
6531;SDS011;3299;42.004;24.868;2022-08-03T07:36:52;4.68;;;2.90;;
6531;SDS011;3299;42.004;24.868;2022-08-03T07:39:17;4.70;;;2.92;;
6531;SDS011;3299;42.004;24.868;2022-08-03T07:41:42;2.92;;;2.67;;
6531;SDS011;3299;42.004;24.868;2022-08-03T07:44:08;3.60;;;2.70;;
6531;SDS011;3299;42.004;24.868;2022-08-03T07:46:33;3.95;;;3.00;;
6531;SDS011;3299;42.004;24.868;2022-08-03T07:48:59;2.83;;;2.60;;
6531;SDS011;3299;42.004;24.868;2022-08-03T07:51:25;2.90;;;2.67;;
6531;SDS011;3299;42.004;24.868;2022-08-03T07:53:51;5.03;;;2.90;;
6531;SDS011;3299;42.004;24.868;2022-08-03T07:56:16;4.20;;;3.17;;
6531;SDS011;3299;42.004;24.868;2022-08-03T07:58:42;5.70;;;3.17;;
6531;SDS011;3299;42.004;24.868;2022-08-03T08:01:07;4.82;;;3.13;;
6531;SDS011;3299;42.004;24.868;2022-08-03T08:03:32;4.07;;;3.67;;
6531;SDS011;3299;42.004;24.868;2022-08-03T08:05:58;4.38;;;3.30;;
6531;SDS011;3299;42.004;24.868;2022-08-03T08:08:23;4.55;;;3.33;;
6531;SDS011;3299;42.004;24.868;2022-08-03T08:10:49;5.03;;;3.22;;
6531;SDS011;3299;42.004;24.868;2022-08-03T08:13:14;3.40;;;3.10;;
6531;SDS011;3299;42.004;24.868;2022-08-03T08:15:40;3.22;;;2.88;;
6531;SDS011;3299;42.004;24.868;2022-08-03T08:18:05;3.28;;;3.03;;
6531;SDS011;3299;42.004;24.868;2022-08-03T08:20:31;3.28;;;2.97;;
6531;SDS011;3299;42.004;24.868;2022-08-03T08:22:59;3.30;;;3.00;;
6531;SDS011;3299;42.004;24.868;2022-08-03T08:25:26;5.15;;;3.33;;
6531;SDS011;3299;42.004;24.868;2022-08-03T08:27:52;5.13;;;2.88;;
6531;SDS011;3299;42.004;24.868;2022-08-03T08:30:20;2.95;;;2.75;;
6531;SDS011;3299;42.004;24.868;2022-08-03T08:32:48;5.88;;;3.17;;
6531;SDS011;3299;42.004;24.868;2022-08-03T08:35:14;4.18;;;3.13;;
6531;SDS011;3299;42.004;24.868;2022-08-03T08:37:41;5.88;;;2.92;;
6531;SDS011;3299;42.004;24.868;2022-08-03T08:40:07;4.18;;;3.70;;
6531;SDS011;3299;42.004;24.868;2022-08-03T08:42:37;4.57;;;3.15;;
6531;SDS011;3299;42.004;24.868;2022-08-03T08:45:04;4.05;;;2.80;;
6531;SDS011;3299;42.004;24.868;2022-08-03T08:47:32;3.55;;;3.25;;
6531;SDS011;3299;42.004;24.868;2022-08-03T08:50:01;3.88;;;3.50;;
6531;SDS011;3299;42.004;24.868;2022-08-03T08:52:27;3.83;;;3.53;;
6531;SDS011;3299;42.004;24.868;2022-08-03T08:55:01;3.45;;;3.13;;
6531;SDS011;3299;42.004;24.868;2022-08-03T08:57:29;4.55;;;3.08;;
6531;SDS011;3299;42.004;24.868;2022-08-03T09:00:09;4.05;;;3.13;;
6531;SDS011;3299;42.004;24.868;2022-08-03T09:02:39;3.72;;;3.40;;
6531;SDS011;3299;42.004;24.868;2022-08-03T09:05:09;5.45;;;3.28;;
6531;SDS011;3299;42.004;24.868;2022-08-03T09:07:37;4.60;;;3.40;;
6531;SDS011;3299;42.004;24.868;2022-08-03T09:10:03;4.63;;;3.88;;
6531;SDS011;3299;42.004;24.868;2022-08-03T09:12:28;4.18;;;3.88;;
6531;SDS011;3299;42.004;24.868;2022-08-03T09:14:54;7.68;;;3.60;;
6531;SDS011;3299;42.004;24.868;2022-08-03T09:17:20;3.70;;;3.40;;
6531;SDS011;3299;42.004;24.868;2022-08-03T09:20:04;5.13;;;3.58;;
6531;SDS011;3299;42.004;24.868;2022-08-03T09:22:32;3.55;;;3.25;;
6531;SDS011;3299;42.004;24.868;2022-08-03T09:24:59;5.47;;;3.00;;
6531;SDS011;3299;42.004;24.868;2022-08-03T09:27:42;4.72;;;2.88;;
6531;SDS011;3299;42.004;24.868;2022-08-03T09:30:14;4.75;;;3.30;;
6531;SDS011;3299;42.004;24.868;2022-08-03T09:32:42;3.65;;;3.33;;
6531;SDS011;3299;42.004;24.868;2022-08-03T09:35:10;6.00;;;2.92;;
6531;SDS011;3299;42.004;24.868;2022-08-03T09:37:36;7.57;;;3.13;;
6531;SDS011;3299;42.004;24.868;2022-08-03T09:40:02;4.80;;;3.22;;
6531;SDS011;3299;42.004;24.868;2022-08-03T09:42:28;3.80;;;3.50;;
6531;SDS011;3299;42.004;24.868;2022-08-03T09:44:54;11.85;;;3.60;;
6531;SDS011;3299;42.004;24.868;2022-08-03T09:47:32;9.82;;;3.60;;
6531;SDS011;3299;42.004;24.868;2022-08-03T09:50:03;4.75;;;3.38;;
6531;SDS011;3299;42.004;24.868;2022-08-03T09:52:32;3.08;;;2.88;;
6531;SDS011;3299;42.004;24.868;2022-08-03T09:55:10;2.97;;;2.78;;
6531;SDS011;3299;42.004;24.868;2022-08-03T09:57:37;7.75;;;2.88;;
6531;SDS011;3299;42.004;24.868;2022-08-03T10:00:11;5.30;;;3.08;;
6531;SDS011;3299;42.004;24.868;2022-08-03T10:02:39;4.03;;;2.75;;
6531;SDS011;3299;42.004;24.868;2022-08-03T10:05:06;7.85;;;3.42;;
6531;SDS011;3299;42.004;24.868;2022-08-03T10:07:46;6.97;;;6.30;;
6531;SDS011;3299;42.004;24.868;2022-08-03T10:10:13;4.68;;;4.28;;
6531;SDS011;3299;42.004;24.868;2022-08-03T10:12:40;4.32;;;4.03;;
6531;SDS011;3299;42.004;24.868;2022-08-03T10:15:07;3.78;;;3.47;;
6531;SDS011;3299;42.004;24.868;2022-08-03T10:17:34;7.88;;;5.20;;
6531;SDS011;3299;42.004;24.868;2022-08-03T10:20:00;8.90;;;7.10;;
6531;SDS011;3299;42.004;24.868;2022-08-03T10:22:28;11.63;;;9.23;;
6531;SDS011;3299;42.004;24.868;2022-08-03T10:24:59;14.73;;;9.60;;
6531;SDS011;3299;42.004;24.868;2022-08-03T10:27:31;16.77;;;8.50;;
6531;SDS011;3299;42.004;24.868;2022-08-03T10:30:01;9.30;;;7.40;;
6531;SDS011;3299;42.004;24.868;2022-08-03T10:37:31;5.20;;;4.70;;
6531;SDS011;3299;42.004;24.868;2022-08-03T10:40:01;4.13;;;3.75;;
6531;SDS011;3299;42.004;24.868;2022-08-03T10:42:27;4.35;;;3.97;;
6531;SDS011;3299;42.004;24.868;2022-08-03T10:44:59;5.05;;;4.60;;
6531;SDS011;3299;42.004;24.868;2022-08-03T10:47:30;17.45;;;8.98;;
6531;SDS011;3299;42.004;24.868;2022-08-03T10:49:56;45.67;;;16.45;;
6531;SDS011;3299;42.004;24.868;2022-08-03T10:52:23;3.72;;;3.42;;
6531;SDS011;3299;42.004;24.868;2022-08-03T10:54:49;5.20;;;3.97;;
6531;SDS011;3299;42.004;24.868;2022-08-03T11:00:15;5.85;;;4.80;;
6531;SDS011;3299;42.004;24.868;2022-08-03T11:03:01;5.47;;;4.70;;
6531;SDS011;3299;42.004;24.868;2022-08-03T11:05:34;5.22;;;3.15;;
6531;SDS011;3299;42.004;24.868;2022-08-03T11:10:59;5.18;;;4.60;;
6531;SDS011;3299;42.004;24.868;2022-08-03T11:14:07;3.22;;;2.90;;
6531;SDS011;3299;42.004;24.868;2022-08-03T11:16:42;9.27;;;3.55;;
6531;SDS011;3299;42.004;24.868;2022-08-03T11:19:17;6.85;;;4.05;;
6531;SDS011;3299;42.004;24.868;2022-08-03T11:43:07;2.47;;;2.38;;
6531;SDS011;3299;42.004;24.868;2022-08-03T11:45:35;6.20;;;3.40;;
6531;SDS011;3299;42.004;24.868;2022-08-03T11:48:12;3.53;;;2.45;;
6531;SDS011;3299;42.004;24.868;2022-08-03T11:50:40;12.57;;;5.90;;
6531;SDS011;3299;42.004;24.868;2022-08-03T11:53:11;3.13;;;2.85;;
6531;SDS011;3299;42.004;24.868;2022-08-03T11:55:40;5.28;;;2.58;;
6531;SDS011;3299;42.004;24.868;2022-08-03T11:58:07;3.75;;;2.58;;
6531;SDS011;3299;42.004;24.868;2022-08-03T12:00:33;3.15;;;2.38;;
6531;SDS011;3299;42.004;24.868;2022-08-03T12:05:35;7.15;;;2.95;;
6531;SDS011;3299;42.004;24.868;2022-08-03T12:08:05;3.35;;;2.67;;
6531;SDS011;3299;42.004;24.868;2022-08-03T12:10:31;4.43;;;2.67;;
6531;SDS011;3299;42.004;24.868;2022-08-03T12:12:58;2.70;;;2.30;;
6531;SDS011;3299;42.004;24.868;2022-08-03T12:15:26;2.17;;;1.80;;
6531;SDS011;3299;42.004;24.868;2022-08-03T12:17:53;4.03;;;2.20;;
6531;SDS011;3299;42.004;24.868;2022-08-03T12:20:26;2.45;;;2.25;;
6531;SDS011;3299;42.004;24.868;2022-08-03T12:22:52;2.38;;;2.20;;
6531;SDS011;3299;42.004;24.868;2022-08-03T12:25:23;2.70;;;2.47;;
6531;SDS011;3299;42.004;24.868;2022-08-03T12:27:55;5.85;;;2.10;;
6531;SDS011;3299;42.004;24.868;2022-08-03T12:30:31;2.13;;;2.03;;
6531;SDS011;3299;42.004;24.868;2022-08-03T12:32:56;3.60;;;2.25;;
6531;SDS011;3299;42.004;24.868;2022-08-03T12:35:22;4.15;;;2.58;;
6531;SDS011;3299;42.004;24.868;2022-08-03T12:37:48;2.90;;;2.10;;
6531;SDS011;3299;42.004;24.868;2022-08-03T12:40:15;1.88;;;1.77;;
6531;SDS011;3299;42.004;24.868;2022-08-03T12:42:49;5.22;;;2.13;;
6531;SDS011;3299;42.004;24.868;2022-08-03T12:45:24;3.20;;;2.20;;
6531;SDS011;3299;42.004;24.868;2022-08-03T12:47:52;2.30;;;2.10;;
6531;SDS011;3299;42.004;24.868;2022-08-03T12:50:26;3.58;;;2.30;;
6531;SDS011;3299;42.004;24.868;2022-08-03T12:52:54;1.80;;;1.70;;
6531;SDS011;3299;42.004;24.868;2022-08-03T12:55:20;3.92;;;2.03;;
6531;SDS011;3299;42.004;24.868;2022-08-03T12:57:46;2.10;;;2.00;;
6531;SDS011;3299;42.004;24.868;2022-08-03T13:00:13;2.92;;;2.00;;
6531;SDS011;3299;42.004;24.868;2022-08-03T13:02:40;2.20;;;2.00;;
6531;SDS011;3299;42.004;24.868;2022-08-03T13:05:09;3.90;;;2.25;;
6531;SDS011;3299;42.004;24.868;2022-08-03T13:07:42;2.70;;;1.85;;
6531;SDS011;3299;42.004;24.868;2022-08-03T13:10:09;2.33;;;2.13;;
6531;SDS011;3299;42.004;24.868;2022-08-03T13:12:45;4.18;;;2.13;;
6531;SDS011;3299;42.004;24.868;2022-08-03T13:15:12;7.03;;;2.50;;
6531;SDS011;3299;42.004;24.868;2022-08-03T13:17:38;4.05;;;2.25;;
6531;SDS011;3299;42.004;24.868;2022-08-03T13:20:03;2.03;;;1.92;;
6531;SDS011;3299;42.004;24.868;2022-08-03T13:22:29;2.85;;;2.30;;
6531;SDS011;3299;42.004;24.868;2022-08-03T13:24:56;2.33;;;2.13;;
6531;SDS011;3299;42.004;24.868;2022-08-03T13:27:23;2.55;;;2.35;;
6531;SDS011;3299;42.004;24.868;2022-08-03T13:29:49;5.43;;;2.30;;
6531;SDS011;3299;42.004;24.868;2022-08-03T13:32:15;4.32;;;2.33;;
6531;SDS011;3299;42.004;24.868;2022-08-03T13:34:40;9.98;;;3.30;;
6531;SDS011;3299;42.004;24.868;2022-08-03T13:37:06;2.53;;;2.40;;
6531;SDS011;3299;42.004;24.868;2022-08-03T13:39:31;3.28;;;2.47;;
6531;SDS011;3299;42.004;24.868;2022-08-03T13:41:57;2.45;;;2.17;;
6531;SDS011;3299;42.004;24.868;2022-08-03T13:44:22;2.70;;;2.50;;
6531;SDS011;3299;42.004;24.868;2022-08-03T13:46:48;4.05;;;2.25;;
6531;SDS011;3299;42.004;24.868;2022-08-03T13:49:13;3.67;;;2.40;;
6531;SDS011;3299;42.004;24.868;2022-08-03T13:51:39;2.60;;;2.30;;
6531;SDS011;3299;42.004;24.868;2022-08-03T13:54:04;4.10;;;2.28;;
6531;SDS011;3299;42.004;24.868;2022-08-03T13:56:30;2.22;;;2.13;;
6531;SDS011;3299;42.004;24.868;2022-08-03T13:58:56;4.35;;;2.22;;
6531;SDS011;3299;42.004;24.868;2022-08-03T14:01:22;2.38;;;2.20;;
6531;SDS011;3299;42.004;24.868;2022-08-03T14:03:47;3.72;;;2.22;;
6531;SDS011;3299;42.004;24.868;2022-08-03T14:06:16;6.40;;;2.15;;
6531;SDS011;3299;42.004;24.868;2022-08-03T14:08:42;5.85;;;2.40;;
6531;SDS011;3299;42.004;24.868;2022-08-03T14:11:08;3.10;;;2.20;;
6531;SDS011;3299;42.004;24.868;2022-08-03T14:13:34;2.55;;;2.35;;
6531;SDS011;3299;42.004;24.868;2022-08-03T14:16:00;3.80;;;2.10;;
6531;SDS011;3299;42.004;24.868;2022-08-03T14:18:25;2.28;;;2.08;;
6531;SDS011;3299;42.004;24.868;2022-08-03T14:20:51;4.03;;;2.45;;
6531;SDS011;3299;42.004;24.868;2022-08-03T14:23:16;3.72;;;2.33;;
6531;SDS011;3299;42.004;24.868;2022-08-03T14:25:42;4.72;;;2.08;;
6531;SDS011;3299;42.004;24.868;2022-08-03T14:28:07;5.13;;;2.30;;
6531;SDS011;3299;42.004;24.868;2022-08-03T14:30:34;2.60;;;2.22;;
6531;SDS011;3299;42.004;24.868;2022-08-03T14:33:00;2.30;;;2.13;;
6531;SDS011;3299;42.004;24.868;2022-08-03T14:35:25;2.28;;;2.08;;
6531;SDS011;3299;42.004;24.868;2022-08-03T14:37:51;2.42;;;2.22;;
6531;SDS011;3299;42.004;24.868;2022-08-03T14:40:17;3.45;;;2.08;;
6531;SDS011;3299;42.004;24.868;2022-08-03T14:42:43;1.75;;;1.65;;
6531;SDS011;3299;42.004;24.868;2022-08-03T14:45:08;2.25;;;2.05;;
6531;SDS011;3299;42.004;24.868;2022-08-03T14:47:34;1.85;;;1.70;;
6531;SDS011;3299;42.004;24.868;2022-08-03T14:50:00;1.92;;;1.83;;
6531;SDS011;3299;42.004;24.868;2022-08-03T14:52:28;6.57;;;2.03;;
6531;SDS011;3299;42.004;24.868;2022-08-03T14:54:54;2.30;;;2.05;;
6531;SDS011;3299;42.004;24.868;2022-08-03T14:57:19;1.90;;;1.80;;
6531;SDS011;3299;42.004;24.868;2022-08-03T14:59:44;1.92;;;1.83;;
6531;SDS011;3299;42.004;24.868;2022-08-03T15:02:10;4.63;;;2.10;;
6531;SDS011;3299;42.004;24.868;2022-08-03T15:04:35;2.83;;;2.08;;
6531;SDS011;3299;42.004;24.868;2022-08-03T15:07:01;2.75;;;2.35;;
6531;SDS011;3299;42.004;24.868;2022-08-03T15:09:26;8.02;;;3.50;;
6531;SDS011;3299;42.004;24.868;2022-08-03T15:11:52;3.58;;;3.22;;
6531;SDS011;3299;42.004;24.868;2022-08-03T15:14:17;5.25;;;2.63;;
6531;SDS011;3299;42.004;24.868;2022-08-03T15:16:43;3.25;;;2.38;;
6531;SDS011;3299;42.004;24.868;2022-08-03T15:19:08;4.28;;;2.55;;
6531;SDS011;3299;42.004;24.868;2022-08-03T15:21:34;5.22;;;3.13;;
6531;SDS011;3299;42.004;24.868;2022-08-03T15:23:59;5.55;;;2.47;;
6531;SDS011;3299;42.004;24.868;2022-08-03T15:26:24;2.33;;;2.22;;
6531;SDS011;3299;42.004;24.868;2022-08-03T15:28:50;3.67;;;2.55;;
6531;SDS011;3299;42.004;24.868;2022-08-03T15:31:19;5.97;;;2.30;;
6531;SDS011;3299;42.004;24.868;2022-08-03T15:33:45;7.32;;;5.32;;
6531;SDS011;3299;42.004;24.868;2022-08-03T15:36:11;3.15;;;2.30;;
6531;SDS011;3299;42.004;24.868;2022-08-03T15:38:36;2.75;;;2.28;;
6531;SDS011;3299;42.004;24.868;2022-08-03T15:41:01;2.50;;;2.30;;
6531;SDS011;3299;42.004;24.868;2022-08-03T15:43:27;3.05;;;2.03;;
6531;SDS011;3299;42.004;24.868;2022-08-03T15:45:52;2.83;;;2.40;;
6531;SDS011;3299;42.004;24.868;2022-08-03T15:48:18;2.53;;;2.30;;
6531;SDS011;3299;42.004;24.868;2022-08-03T15:50:44;2.65;;;2.45;;